createdAt,value
2022-07-28T00:01:13.852Z,22.33
2022-07-28T00:03:41.853Z,22.32
2022-07-28T00:06:09.888Z,22.38
2022-07-28T00:08:38.941Z,22.35
2022-07-28T00:11:09.293Z,22.34
2022-07-28T00:13:37.219Z,22.35
2022-07-28T00:16:07.688Z,22.35
2022-07-28T00:18:35.386Z,22.33
2022-07-28T00:21:02.999Z,22.23
2022-07-28T00:23:39.167Z,22.18
2022-07-28T00:26:09.358Z,22.10
2022-07-28T00:28:37.641Z,22.17
2022-07-28T00:31:10.988Z,22.24
2022-07-28T00:33:41.927Z,22.19
2022-07-28T00:36:11.764Z,22.15
2022-07-28T00:38:44.303Z,22.15
2022-07-28T00:41:13.018Z,22.15
2022-07-28T00:43:48.897Z,22.14
2022-07-28T00:46:19.477Z,22.08
2022-07-28T00:48:50.785Z,22.01
2022-07-28T00:51:21.161Z,22.07
2022-07-28T00:53:50.623Z,22.13
2022-07-28T00:56:19.968Z,22.20
2022-07-28T00:58:48.479Z,22.14
2022-07-28T01:01:20.532Z,22.13
2022-07-28T01:03:57.473Z,22.11
2022-07-28T01:06:52.449Z,22.09
2022-07-28T01:09:33.174Z,22.06
2022-07-28T01:12:37.763Z,22.03
2022-07-28T01:15:08.578Z,22.10
2022-07-28T01:17:43.565Z,22.11
2022-07-28T01:20:38.438Z,22.06
2022-07-28T01:23:32.140Z,21.97
2022-07-28T01:26:37.507Z,21.99
2022-07-28T01:29:32.531Z,21.98
2022-07-28T01:32:09.763Z,21.95
2022-07-28T01:34:48.831Z,21.90
2022-07-28T01:37:20.707Z,21.88
2022-07-28T01:39:53.406Z,21.87
2022-07-28T01:42:24.136Z,21.81
2022-07-28T01:44:55.076Z,21.82
2022-07-28T01:47:30.094Z,21.78
2022-07-28T01:50:03.823Z,21.76
2022-07-28T01:52:32.564Z,21.72
2022-07-28T01:55:03.703Z,21.72
2022-07-28T01:57:33.476Z,21.75
2022-07-28T02:00:02.336Z,21.70
2022-07-28T02:02:46.213Z,21.71
2022-07-28T02:05:19.373Z,21.75
2022-07-28T02:07:51.618Z,21.74
2022-07-28T02:10:20.372Z,21.71
2022-07-28T02:12:50.475Z,21.66
2022-07-28T02:15:21.087Z,21.65
2022-07-28T02:17:52.379Z,21.55
2022-07-28T02:20:22.483Z,21.59
2022-07-28T02:22:54.134Z,21.62
2022-07-28T02:25:22.203Z,21.62
2022-07-28T02:27:57.412Z,21.64
2022-07-28T02:30:35.470Z,21.64
2022-07-28T02:33:08.311Z,21.64
2022-07-28T02:35:57.531Z,21.62
2022-07-28T02:38:33.030Z,21.62
2022-07-28T02:41:08.046Z,21.61
2022-07-28T02:43:50.027Z,21.62
2022-07-28T02:46:25.677Z,21.56
2022-07-28T02:49:00.647Z,21.59
2022-07-28T02:51:29.825Z,21.63
2022-07-28T02:53:58.839Z,21.65
2022-07-28T02:56:27.047Z,21.68
2022-07-28T02:58:55.502Z,21.61
2022-07-28T03:01:24.972Z,21.60
2022-07-28T03:03:55.562Z,21.60
2022-07-28T03:06:26.593Z,21.62
2022-07-28T03:08:57.617Z,21.66
2022-07-28T03:11:25.398Z,21.67
2022-07-28T03:13:54.546Z,21.67
2022-07-28T03:16:22.899Z,21.64
2022-07-28T03:18:53.775Z,21.65
2022-07-28T03:21:22.551Z,21.66
2022-07-28T03:23:51.798Z,21.68
2022-07-28T03:26:36.123Z,21.71
2022-07-28T03:29:04.343Z,21.79
2022-07-28T03:31:34.298Z,21.82
2022-07-28T03:34:02.701Z,21.81
2022-07-28T03:36:40.133Z,21.85
2022-07-28T03:39:12.008Z,21.89
2022-07-28T03:41:43.931Z,21.96
2022-07-28T03:44:13.998Z,21.99
2022-07-28T03:46:54.991Z,22.02
2022-07-28T03:49:22.773Z,22.09
2022-07-28T03:51:50.655Z,22.07
2022-07-28T03:54:18.507Z,22.15
2022-07-28T03:56:46.102Z,22.07
2022-07-28T03:59:13.790Z,22.08
2022-07-28T04:01:41.601Z,22.10
2022-07-28T04:04:09.280Z,22.16
2022-07-28T04:06:37.464Z,22.17
2022-07-28T04:09:05.615Z,22.18
2022-07-28T04:11:33.378Z,22.24
2022-07-28T04:14:01.001Z,22.30
2022-07-28T04:16:29.054Z,22.28
2022-07-28T04:18:56.919Z,22.24
2022-07-28T04:21:24.610Z,22.30
2022-07-28T04:23:52.833Z,22.36
2022-07-28T04:26:20.807Z,22.37
2022-07-28T04:28:48.456Z,22.35
2022-07-28T04:31:17.255Z,22.36
2022-07-28T04:33:45.100Z,22.45
2022-07-28T04:36:13.543Z,22.51
2022-07-28T04:38:42.314Z,22.55
2022-07-28T04:41:09.966Z,22.64
2022-07-28T04:43:38.727Z,22.69
2022-07-28T04:46:06.669Z,22.70
2022-07-28T04:48:34.277Z,22.77
2022-07-28T04:51:02.592Z,22.77
2022-07-28T04:53:30.748Z,22.83
2022-07-28T04:55:58.360Z,22.86
2022-07-28T04:58:26.111Z,22.92
2022-07-28T05:00:54.081Z,22.98
2022-07-28T05:03:21.762Z,23.10
2022-07-28T05:05:53.888Z,23.20
2022-07-28T05:08:25.602Z,23.25
2022-07-28T05:10:56.520Z,23.33
2022-07-28T05:13:33.703Z,23.41
2022-07-28T05:16:03.139Z,23.47
2022-07-28T05:18:31.695Z,23.51
2022-07-28T05:20:59.359Z,23.52
2022-07-28T05:23:27.012Z,23.54
2022-07-28T05:25:54.677Z,23.61
2022-07-28T05:28:22.460Z,23.66
2022-07-28T05:30:50.082Z,23.72
2022-07-28T05:33:17.882Z,23.77
2022-07-28T05:35:52.958Z,23.88
2022-07-28T05:38:22.006Z,23.93
2022-07-28T05:40:50.532Z,24.00
2022-07-28T05:43:19.030Z,24.05
2022-07-28T05:45:47.499Z,24.12
2022-07-28T05:48:20.162Z,24.13
2022-07-28T05:50:48.461Z,24.14
2022-07-28T05:53:16.427Z,24.17
2022-07-28T05:56:00.693Z,24.25
2022-07-28T05:58:31.412Z,24.30
2022-07-28T06:01:00.763Z,24.39
2022-07-28T06:03:32.429Z,24.46
2022-07-28T06:06:15.723Z,24.57
2022-07-28T06:08:47.735Z,24.61
2022-07-28T06:11:21.651Z,24.67
2022-07-28T06:13:50.902Z,24.69
2022-07-28T06:16:23.337Z,24.64
2022-07-28T06:18:52.205Z,24.63
2022-07-28T06:21:22.316Z,24.65
2022-07-28T06:23:53.103Z,24.67
2022-07-28T06:26:23.378Z,24.67
2022-07-28T06:28:51.991Z,24.81
2022-07-28T06:31:22.577Z,24.92
2022-07-28T06:33:50.909Z,24.99
2022-07-28T06:36:18.470Z,25.07
2022-07-28T06:38:46.327Z,25.09
2022-07-28T06:41:14.038Z,25.19
2022-07-28T06:43:41.899Z,25.27
2022-07-28T06:46:09.830Z,25.30
2022-07-28T06:48:38.720Z,25.37
2022-07-28T06:51:06.426Z,25.44
2022-07-28T06:53:34.707Z,25.50
2022-07-28T06:56:05.226Z,25.60
2022-07-28T06:58:33.422Z,25.70
2022-07-28T07:01:02.736Z,25.77
2022-07-28T07:03:31.089Z,25.87
2022-07-28T07:05:58.666Z,25.92
2022-07-28T07:08:26.874Z,25.95
2022-07-28T07:10:54.739Z,26.11
2022-07-28T07:13:22.516Z,26.21
2022-07-28T07:15:52.864Z,26.27
2022-07-28T07:18:20.595Z,26.35
2022-07-28T07:20:49.249Z,26.43
2022-07-28T07:23:17.131Z,26.53
2022-07-28T07:25:45.231Z,26.64
2022-07-28T07:28:12.762Z,26.73
2022-07-28T07:30:41.715Z,26.83
2022-07-28T07:33:10.436Z,26.95
2022-07-28T07:35:38.690Z,27.09
2022-07-28T07:38:06.711Z,27.16
2022-07-28T07:40:35.291Z,27.29
2022-07-28T07:43:03.158Z,27.40
2022-07-28T07:45:31.943Z,27.38
2022-07-28T07:48:01.480Z,27.50
2022-07-28T07:50:29.947Z,27.67
2022-07-28T07:52:57.514Z,27.68
2022-07-28T07:55:25.184Z,27.69
2022-07-28T07:57:53.460Z,27.71
2022-07-28T08:00:29.167Z,27.82
2022-07-28T08:02:58.575Z,27.92
2022-07-28T08:05:35.999Z,27.97
2022-07-28T08:08:05.642Z,28.08
2022-07-28T08:10:36.083Z,28.12
2022-07-28T08:13:04.824Z,28.17
2022-07-28T08:15:35.048Z,28.22
2022-07-28T08:18:03.517Z,28.21
2022-07-28T08:20:31.075Z,28.11
2022-07-28T08:22:59.055Z,28.09
2022-07-28T08:25:27.290Z,28.28
2022-07-28T08:27:55.674Z,28.35
2022-07-28T08:30:26.298Z,28.41
2022-07-28T08:32:58.115Z,28.37
2022-07-28T08:35:35.332Z,28.58
2022-07-28T08:38:07.082Z,28.71
2022-07-28T08:40:38.832Z,28.71
2022-07-28T08:43:14.134Z,28.76
2022-07-28T08:45:44.753Z,28.83
2022-07-28T08:48:13.496Z,28.95
2022-07-28T08:50:44.167Z,28.99
2022-07-28T08:53:15.231Z,29.04
2022-07-28T08:55:44.040Z,29.04
2022-07-28T08:58:13.518Z,29.28
2022-07-28T09:00:42.026Z,29.26
2022-07-28T09:03:11.713Z,29.30
2022-07-28T09:05:43.287Z,29.41
2022-07-28T09:08:12.716Z,29.55
2022-07-28T09:10:41.387Z,29.70
2022-07-28T09:13:18.005Z,30.02
2022-07-28T09:15:46.626Z,30.02
2022-07-28T09:18:16.358Z,29.96
2022-07-28T09:20:45.249Z,29.86
2022-07-28T09:23:43.532Z,29.68
2022-07-28T09:26:11.311Z,29.26
2022-07-28T09:28:54.106Z,29.09
2022-07-28T09:31:23.788Z,29.05
2022-07-28T09:34:02.340Z,28.87
2022-07-28T09:36:37.648Z,29.01
2022-07-28T09:39:05.311Z,29.29
2022-07-28T09:41:50.395Z,29.47
2022-07-28T09:44:22.951Z,29.36
2022-07-28T09:46:51.373Z,29.50
2022-07-28T09:49:21.835Z,29.77
2022-07-28T09:52:02.726Z,30.03
2022-07-28T09:54:30.683Z,30.21
2022-07-28T09:56:59.394Z,29.90
2022-07-28T09:59:52.255Z,30.19
2022-07-28T10:02:29.510Z,30.33
2022-07-28T10:05:00.259Z,30.29
2022-07-28T10:07:30.136Z,30.13
2022-07-28T10:10:07.861Z,30.33
2022-07-28T10:12:37.117Z,30.37
2022-07-28T10:15:34.237Z,30.59
2022-07-28T10:18:05.198Z,30.76
2022-07-28T10:20:34.332Z,30.76
2022-07-28T10:23:09.898Z,30.66
2022-07-28T10:25:39.823Z,30.52
2022-07-28T10:28:11.866Z,30.31
2022-07-28T10:30:41.330Z,30.39
2022-07-28T10:33:14.606Z,30.63
2022-07-28T10:35:54.342Z,30.69
2022-07-28T10:38:28.198Z,30.52
2022-07-28T10:40:58.514Z,30.65
2022-07-28T10:43:29.130Z,30.48
2022-07-28T10:46:07.076Z,30.60
2022-07-28T10:48:39.435Z,30.59
2022-07-28T10:51:07.608Z,30.74
2022-07-28T10:53:52.815Z,30.76
2022-07-28T10:56:48.403Z,31.03
2022-07-28T10:59:38.559Z,31.20
2022-07-28T11:02:06.785Z,31.28
2022-07-28T11:04:51.840Z,31.01
2022-07-28T11:07:20.835Z,30.91
2022-07-28T11:09:49.009Z,31.19
2022-07-28T11:12:17.073Z,31.31
2022-07-28T11:14:45.117Z,31.43
2022-07-28T11:17:16.026Z,31.36
2022-07-28T11:20:06.909Z,31.40
2022-07-28T11:22:34.288Z,31.62
2022-07-28T11:25:19.785Z,31.77
2022-07-28T11:27:54.474Z,31.73
2022-07-28T11:30:28.955Z,31.29
2022-07-28T11:32:57.889Z,31.43
2022-07-28T11:35:27.582Z,31.30
2022-07-28T11:38:01.732Z,31.21
2022-07-28T11:40:30.863Z,31.50
2022-07-28T11:43:35.615Z,31.67
2022-07-28T11:46:10.090Z,31.84
2022-07-28T11:48:41.540Z,31.73
2022-07-28T11:51:13.089Z,31.82
2022-07-28T11:53:55.688Z,31.87
2022-07-28T11:56:27.170Z,32.00
2022-07-28T11:58:58.880Z,32.03
2022-07-28T12:01:31.651Z,31.95
2022-07-28T12:04:01.207Z,31.94
2022-07-28T12:06:36.988Z,31.63
2022-07-28T12:09:09.520Z,31.75
2022-07-28T12:11:41.219Z,32.11
2022-07-28T12:14:15.001Z,31.90
2022-07-28T12:16:44.705Z,31.38
2022-07-28T12:19:19.293Z,31.04
2022-07-28T12:21:53.250Z,30.76
2022-07-28T12:24:44.910Z,30.39
2022-07-28T12:27:16.440Z,30.66
2022-07-28T12:29:55.590Z,31.01
2022-07-28T12:32:29.817Z,31.26
2022-07-28T12:34:57.488Z,31.38
2022-07-28T12:37:25.507Z,31.50
2022-07-28T12:39:53.460Z,31.58
2022-07-28T12:42:21.922Z,31.41
2022-07-28T12:44:51.440Z,31.41
2022-07-28T12:47:28.190Z,31.70
2022-07-28T12:50:19.226Z,31.80
2022-07-28T12:53:08.218Z,31.64
2022-07-28T12:55:36.678Z,31.62
2022-07-28T12:58:05.858Z,31.51
2022-07-28T13:00:36.054Z,31.37
2022-07-28T13:03:24.294Z,31.30
2022-07-28T13:06:02.875Z,31.19
2022-07-28T13:08:47.475Z,31.06
2022-07-28T13:11:42.516Z,30.95
2022-07-28T13:14:07.008Z,30.66
2022-07-28T13:16:36.675Z,30.59
2022-07-28T13:19:06.227Z,30.56
2022-07-28T13:21:58.120Z,30.51
2022-07-28T13:24:29.778Z,30.73
2022-07-28T13:26:59.202Z,31.10
2022-07-28T13:29:27.201Z,31.30
2022-07-28T13:31:55.284Z,31.03
2022-07-28T13:34:23.569Z,30.69
2022-07-28T13:36:52.537Z,30.42
2022-07-28T13:39:20.431Z,30.12
2022-07-28T13:41:56.664Z,30.00
2022-07-28T13:44:30.002Z,29.98
2022-07-28T13:46:59.610Z,29.80
2022-07-28T13:49:29.211Z,29.62
2022-07-28T13:52:00.317Z,29.05
2022-07-28T13:54:28.675Z,28.91
2022-07-28T13:57:12.323Z,29.10
2022-07-28T13:59:44.129Z,29.53
2022-07-28T14:02:15.169Z,29.75
2022-07-28T14:04:45.940Z,30.06
2022-07-28T14:07:21.027Z,30.29
2022-07-28T14:09:52.536Z,30.56
2022-07-28T14:12:20.197Z,30.74
2022-07-28T14:14:48.907Z,30.95
2022-07-28T14:20:12.243Z,31.13
2022-07-28T14:22:46.297Z,31.01
2022-07-28T14:25:20.774Z,30.82
2022-07-28T14:27:50.630Z,30.83
2022-07-28T14:30:20.228Z,30.61
2022-07-28T14:32:48.125Z,30.60
2022-07-28T14:35:16.690Z,30.66
2022-07-28T14:40:33.709Z,30.80
2022-07-28T14:43:07.005Z,30.74
2022-07-28T14:46:00.504Z,30.64
2022-07-28T14:48:23.245Z,30.67
2022-07-28T14:50:52.434Z,30.60
2022-07-28T14:53:22.311Z,30.43
2022-07-28T14:55:50.000Z,30.34
2022-07-28T14:58:17.466Z,30.46
2022-07-28T15:00:45.391Z,30.21
2022-07-28T15:03:13.489Z,30.37
2022-07-28T15:05:41.547Z,30.64
2022-07-28T15:08:09.155Z,31.23
2022-07-28T15:10:36.868Z,31.29
2022-07-28T15:13:04.729Z,30.76
2022-07-28T15:15:32.261Z,30.94
2022-07-28T15:18:00.430Z,31.01
2022-07-28T15:20:28.667Z,31.35
2022-07-28T15:22:56.375Z,31.61
2022-07-28T15:25:24.283Z,31.45
2022-07-28T15:27:51.815Z,31.38
2022-07-28T15:30:19.586Z,31.56
2022-07-28T15:32:56.225Z,31.83
2022-07-28T15:35:26.126Z,32.31
2022-07-28T15:37:54.975Z,32.27
2022-07-28T15:40:23.367Z,32.41
2022-07-28T15:42:51.494Z,31.45
2022-07-28T15:45:20.098Z,30.99
2022-07-28T15:47:48.419Z,31.14
2022-07-28T15:50:16.250Z,31.33
2022-07-28T15:52:44.098Z,31.22
2022-07-28T15:55:11.850Z,31.68
2022-07-28T15:57:39.566Z,31.10
2022-07-28T16:00:08.206Z,30.30
2022-07-28T16:02:35.849Z,29.75
2022-07-28T16:05:03.965Z,29.20
2022-07-28T16:07:35.133Z,29.14
2022-07-28T16:10:03.366Z,29.09
2022-07-28T16:12:31.494Z,29.12
2022-07-28T16:15:00.098Z,28.91
2022-07-28T16:17:28.151Z,28.69
2022-07-28T16:19:58.761Z,28.45
2022-07-28T16:22:30.746Z,28.28
2022-07-28T16:24:58.359Z,28.17
2022-07-28T16:27:26.204Z,28.17
2022-07-28T16:29:53.828Z,28.14
2022-07-28T16:32:22.031Z,28.09
2022-07-28T16:34:49.651Z,28.01
2022-07-28T16:37:19.704Z,27.99
2022-07-28T16:39:48.447Z,27.87
2022-07-28T16:42:17.009Z,27.78
2022-07-28T16:44:44.575Z,27.71
2022-07-28T16:47:12.587Z,27.62
2022-07-28T16:49:45.335Z,27.55
2022-07-28T16:52:14.979Z,27.46
2022-07-28T16:54:43.068Z,27.45
2022-07-28T16:57:12.697Z,27.39
2022-07-28T16:59:48.096Z,27.32
2022-07-28T17:02:17.355Z,27.25
2022-07-28T17:04:46.335Z,27.19
2022-07-28T17:07:14.341Z,27.18
2022-07-28T17:09:42.029Z,27.15
2022-07-28T17:12:12.473Z,27.15
2022-07-28T17:14:41.031Z,27.05
2022-07-28T17:17:11.116Z,26.98
2022-07-28T17:19:43.388Z,26.98
2022-07-28T17:22:15.624Z,27.01
2022-07-28T17:24:43.582Z,26.97
2022-07-28T17:29:59.447Z,26.95
2022-07-28T17:32:27.354Z,26.88
2022-07-28T17:34:55.817Z,26.81
2022-07-28T17:37:29.715Z,26.73
2022-07-28T17:39:59.311Z,26.67
2022-07-28T17:42:27.282Z,26.69
2022-07-28T17:44:56.391Z,26.64
2022-07-28T17:47:36.013Z,26.61
2022-07-28T17:50:07.174Z,26.56
2022-07-28T17:52:35.274Z,26.57
2022-07-28T17:55:23.375Z,26.54
2022-07-28T17:57:52.149Z,26.50
2022-07-28T18:00:21.703Z,26.49
2022-07-28T18:02:50.004Z,26.45
2022-07-28T18:05:20.485Z,26.43
2022-07-28T18:07:48.992Z,26.39
2022-07-28T18:10:24.781Z,26.40
2022-07-28T18:12:52.931Z,26.37
2022-07-28T18:15:22.004Z,26.33
2022-07-28T18:17:55.542Z,26.34
2022-07-28T18:20:29.950Z,26.32
2022-07-28T18:22:58.101Z,26.29
2022-07-28T18:25:26.691Z,26.19
2022-07-28T18:27:58.551Z,26.19
2022-07-28T18:30:27.026Z,26.16
2022-07-28T18:32:56.060Z,26.12
2022-07-28T18:35:24.036Z,26.16
2022-07-28T18:37:51.911Z,26.15
2022-07-28T18:40:21.640Z,26.10
2022-07-28T18:42:52.107Z,25.95
2022-07-28T18:45:20.031Z,25.94
2022-07-28T18:47:49.136Z,25.89
2022-07-28T18:50:30.170Z,25.84
2022-07-28T18:53:00.030Z,25.78
2022-07-28T18:55:27.934Z,25.76
2022-07-28T18:57:55.716Z,25.71
2022-07-28T19:00:23.407Z,25.75
2022-07-28T19:02:53.430Z,25.74
2022-07-28T19:05:21.191Z,25.72
2022-07-28T19:07:48.894Z,25.69
2022-07-28T19:10:16.763Z,25.63
2022-07-28T19:12:46.357Z,25.64
2022-07-28T19:15:15.179Z,25.62
2022-07-28T19:17:44.443Z,25.63
2022-07-28T19:20:12.013Z,25.59
2022-07-28T19:22:44.687Z,25.59
2022-07-28T19:25:12.235Z,25.54
2022-07-28T19:27:40.100Z,25.56
2022-07-28T19:30:09.130Z,25.47
2022-07-28T19:32:41.728Z,25.48
2022-07-28T19:35:10.750Z,25.48
2022-07-28T19:37:39.049Z,25.45
2022-07-28T19:40:07.470Z,25.37
2022-07-28T19:42:35.432Z,25.29
2022-07-28T19:45:06.994Z,25.25
2022-07-28T19:47:37.431Z,25.19
2022-07-28T19:50:06.372Z,25.14
2022-07-28T19:52:34.721Z,25.08
2022-07-28T19:55:06.490Z,25.09
2022-07-28T19:57:37.324Z,25.04
2022-07-28T20:00:07.470Z,25.03
2022-07-28T20:02:39.523Z,25.06
2022-07-28T20:05:09.485Z,25.01
2022-07-28T20:07:38.303Z,24.97
2022-07-28T20:10:06.770Z,24.92
2022-07-28T20:12:39.191Z,24.86
2022-07-28T20:15:08.415Z,24.86
2022-07-28T20:17:39.838Z,24.84
2022-07-28T20:20:11.741Z,24.83
2022-07-28T20:22:41.259Z,24.81
2022-07-28T20:25:10.127Z,24.68
2022-07-28T20:27:40.737Z,24.65
2022-07-28T20:30:11.503Z,24.67
2022-07-28T20:32:42.251Z,24.66
2022-07-28T20:35:11.189Z,24.61
2022-07-28T20:37:39.443Z,24.61
2022-07-28T20:40:09.088Z,24.58
2022-07-28T20:42:37.563Z,24.50
2022-07-28T20:45:05.930Z,24.45
2022-07-28T20:47:34.111Z,24.46
2022-07-28T20:50:02.171Z,24.43
2022-07-28T20:52:30.917Z,24.46
2022-07-28T20:54:58.727Z,24.42
2022-07-28T20:57:26.518Z,24.28
2022-07-28T20:59:54.180Z,24.24
2022-07-28T21:02:23.183Z,24.15
2022-07-28T21:04:52.125Z,24.09
2022-07-28T21:08:04.466Z,23.97
2022-07-28T21:10:11.972Z,23.85
2022-07-28T21:12:39.748Z,23.89
2022-07-28T21:15:09.283Z,23.87
2022-07-28T21:17:37.091Z,23.80
2022-07-28T21:20:06.399Z,23.76
2022-07-28T21:22:37.696Z,23.70
2022-07-28T21:25:08.083Z,23.58
2022-07-28T21:27:54.379Z,23.54
2022-07-28T21:30:28.162Z,23.45
2022-07-28T21:32:56.365Z,23.46
2022-07-28T21:35:24.397Z,23.48
2022-07-28T21:37:52.170Z,23.39
2022-07-28T21:40:25.347Z,23.24
2022-07-28T21:42:53.216Z,23.23
2022-07-28T21:45:22.420Z,23.20
2022-07-28T21:47:51.440Z,23.09
2022-07-28T21:50:19.411Z,23.06
2022-07-28T21:52:47.045Z,23.04
2022-07-28T21:55:14.766Z,22.93
2022-07-28T21:57:43.053Z,22.96
2022-07-28T22:00:12.601Z,22.96
2022-07-28T22:02:41.973Z,22.86
2022-07-28T22:05:10.204Z,22.85
2022-07-28T22:07:39.982Z,22.79
2022-07-28T22:10:08.177Z,22.77
2022-07-28T22:12:36.559Z,22.69
2022-07-28T22:15:04.632Z,22.69
2022-07-28T22:17:38.547Z,22.68
2022-07-28T22:20:07.655Z,22.64
2022-07-28T22:22:35.675Z,22.63
2022-07-28T22:25:03.961Z,22.61
2022-07-28T22:27:33.950Z,22.51
2022-07-28T22:30:02.993Z,22.50
2022-07-28T22:32:32.786Z,22.45
2022-07-28T22:35:00.634Z,22.46
2022-07-28T22:37:28.405Z,22.47
2022-07-28T22:39:56.367Z,22.49
2022-07-28T22:42:24.070Z,22.55
2022-07-28T22:44:54.149Z,22.54
2022-07-28T22:47:21.863Z,22.53
2022-07-28T22:49:55.822Z,22.38
2022-07-28T22:52:27.466Z,22.35
2022-07-28T22:54:56.528Z,22.26
2022-07-28T22:57:26.171Z,22.29
2022-07-28T22:59:53.611Z,22.26
2022-07-28T23:02:21.409Z,22.20
2022-07-28T23:04:51.965Z,22.14
2022-07-28T23:07:19.783Z,22.09
2022-07-28T23:10:11.851Z,22.06
2022-07-28T23:12:42.206Z,22.08
2022-07-28T23:15:09.912Z,22.04
2022-07-28T23:17:37.726Z,22.05
2022-07-28T23:20:06.112Z,22.07
2022-07-28T23:22:34.716Z,22.10
2022-07-28T23:25:03.899Z,22.08
2022-07-28T23:27:31.680Z,22.04
2022-07-28T23:29:59.331Z,22.00
2022-07-28T23:32:26.981Z,21.99
2022-07-28T23:34:56.128Z,21.92
2022-07-28T23:37:23.755Z,21.95
2022-07-28T23:39:52.379Z,21.96
2022-07-28T23:42:20.087Z,21.99
2022-07-28T23:44:47.669Z,21.96
2022-07-28T23:47:15.313Z,21.93
2022-07-28T23:49:43.036Z,21.96
2022-07-28T23:52:10.786Z,21.96
2022-07-28T23:54:39.540Z,21.97
2022-07-28T23:57:07.182Z,21.93
2022-07-28T23:59:34.720Z,21.95
